Terminal Aerodrome Forecast
Issued by NWS

Current Version | Previous Version | Text Only | Print | Product List | Glossary On
Versions: 1 2 3 4 5 6 7 8 9 10 11 12 13 14 15 16 17 18 19 20 21 22 23 24 25 26 27 28 29 30 31 32 33 34
000
FTUS46 KOTX 202338
TAFSFF
TAF
KSFF 202338Z 2100/2124 12007KT 4SM -RA BR OVC012
     FM210900 22015G18KT 5SM BR VCSH OVC008 WS020/23048KT
     FM211200 22018G26KT 6SM BR OVC010
     FM211800 23016G25KT P6SM SCT015 BKN090=

USA.gov is the U.S. government's official web portal to all federal, state and local government web resources and services.